Time;durP1;ratioP1;P1;durP2;ratioP2;P2;SDS_P1;SDS_P2;PMS_P1;PMS_P2;Temp;Humidity;BMP_temperature;BMP_pressure;BME280_temperature;BME280_humidity;BME280_pressure;Samples;Min_cycle;Max_cycle;Signal;HPM_P1;HPM_P2
2023/07/20 00:01:51;;;;;;;4.93;2.90;;;;;;;24.43;47.31;101563.34;5029769;28;20042;-34
2023/07/20 00:04:18;;;;;;;5.50;3.00;;;;;;;24.43;47.53;101568.75;5030288;28;20550;-34
2023/07/20 00:06:45;;;;;;;5.63;3.22;;;;;;;24.41;47.61;101566.25;5026649;28;20347;-34
2023/07/20 00:09:12;;;;;;;4.05;2.83;;;;;;;24.41;46.98;101565.41;5026703;28;20124;-33
2023/07/20 00:11:39;;;;;;;4.57;2.80;;;;;;;24.39;47.16;101568.28;5029836;28;20388;-34
2023/07/20 00:14:06;;;;;;;5.65;3.45;;;;;;;24.40;47.28;101574.53;5027798;28;20054;-33
2023/07/20 00:16:33;;;;;;;4.07;2.60;;;;;;;24.38;47.01;101572.84;5025615;28;20057;-34
2023/07/20 00:19:00;;;;;;;4.78;2.80;;;;;;;24.38;47.43;101577.44;5025490;28;20098;-34
2023/07/20 00:21:26;;;;;;;4.15;2.67;;;;;;;24.37;46.86;101576.56;5027817;28;20099;-34
2023/07/20 00:23:53;;;;;;;3.13;2.30;;;;;;;24.36;47.02;101576.72;5026628;28;20046;-34
2023/07/20 00:26:19;;;;;;;5.13;2.45;;;;;;;24.36;47.36;101571.28;5026266;28;20049;-34
2023/07/20 00:28:50;;;;;;;4.47;2.50;;;;;;;24.36;46.93;101576.72;5025967;28;20079;-33
2023/07/20 00:31:16;;;;;;;3.15;2.13;;;;;;;24.35;47.24;101583.16;5026872;28;20115;-34
2023/07/20 00:33:43;;;;;;;4.72;2.38;;;;;;;24.34;47.38;101582.31;5026374;28;20065;-34
2023/07/20 00:36:09;;;;;;;3.70;2.65;;;;;;;24.32;47.26;101568.13;5027273;28;20084;-34
2023/07/20 00:38:36;;;;;;;4.50;2.60;;;;;;;24.32;47.49;101565.41;5025456;28;20071;-34
2023/07/20 00:41:03;;;;;;;3.63;2.30;;;;;;;24.31;47.51;101569.13;5026956;28;20128;-34
2023/07/20 00:43:29;;;;;;;3.65;1.95;;;;;;;24.29;47.36;101559.50;5026297;28;20076;-34
2023/07/20 00:45:56;;;;;;;3.50;2.00;;;;;;;24.29;47.31;101564.94;5025791;28;20049;-33
2023/07/20 00:48:23;;;;;;;3.28;2.22;;;;;;;24.28;47.48;101565.94;5027912;28;20049;-34
2023/07/20 00:50:50;;;;;;;4.30;2.58;;;;;;;24.28;47.36;101568.63;5028589;28;20108;-33
2023/07/20 00:53:17;;;;;;;3.45;2.17;;;;;;;24.25;47.09;101561.72;5028818;28;20190;-33
2023/07/20 00:55:44;;;;;;;2.92;1.92;;;;;;;24.24;47.17;101570.88;5031972;28;20045;-32
2023/07/20 00:58:11;;;;;;;2.83;1.98;;;;;;;24.24;47.76;101567.31;5030988;28;20056;-33
2023/07/20 01:00:37;;;;;;;2.88;1.90;;;;;;;24.24;47.21;101568.16;5029126;28;20045;-33
2023/07/20 01:03:04;;;;;;;3.28;2.13;;;;;;;24.22;47.52;101562.06;5026297;28;20438;-33
2023/07/20 01:06:05;;;;;;;3.42;1.98;;;;;;;24.20;48.03;101565.97;5030610;28;20349;-33
2023/07/20 01:08:55;;;;;;;3.40;2.10;;;;;;;24.18;47.29;101558.03;5028631;28;20128;-33
2023/07/20 01:11:45;;;;;;;3.03;2.05;;;;;;;24.19;47.57;101558.88;5023806;28;20049;-33
2023/07/20 01:14:13;;;;;;;3.05;1.90;;;;;;;24.19;47.54;101561.56;5027514;28;20378;-33
2023/07/20 01:16:39;;;;;;;3.15;1.90;;;;;;;24.18;47.40;101566.16;5030825;28;20053;-32
2023/07/20 01:19:06;;;;;;;2.70;1.70;;;;;;;24.16;47.97;101565.47;5034957;28;20041;-32
2023/07/20 01:21:51;;;;;;;2.83;1.67;;;;;;;24.13;47.23;101572.09;5040086;28;20053;-32
2023/07/20 01:24:42;;;;;;;1.75;1.52;;;;;;;24.13;47.61;101571.25;5040819;28;20593;-33
2023/07/20 01:27:37;;;;;;;4.68;1.73;;;;;;;24.13;48.01;101579.41;5043097;28;20060;-33
2023/07/20 01:30:21;;;;;;;;;;;;;;;24.12;47.95;101573.13;5041507;28;20120;-33
2023/07/20 01:32:51;;;;;;;2.80;1.73;;;;;;;24.16;47.41;101580.88;5035403;28;19928;-34
2023/07/20 01:35:21;;;;;;;2.60;1.70;;;;;;;24.12;47.74;101581.25;5033537;28;20447;-32
2023/07/20 01:37:48;;;;;;;3.38;1.98;;;;;;;24.12;47.11;101578.56;5037708;28;20437;-33
2023/07/20 01:40:15;;;;;;;2.00;1.45;;;;;;;24.10;47.67;101586.00;5036476;28;20095;-33
2023/07/20 01:42:48;;;;;;;2.33;1.60;;;;;;;24.09;47.99;101575.34;5040040;28;20057;-33
2023/07/20 01:45:15;;;;;;;2.38;1.60;;;;;;;24.09;47.95;101578.91;5034341;28;20334;-32
2023/07/20 01:47:42;;;;;;;2.30;1.50;;;;;;;24.09;47.92;101575.34;5033004;28;20140;-33
2023/07/20 01:50:10;;;;;;;2.30;1.52;;;;;;;24.08;48.03;101576.34;5032550;28;20073;-35
2023/07/20 01:52:36;;;;;;;2.33;1.73;;;;;;;24.07;47.93;101572.81;5032688;28;20041;-32
2023/07/20 01:55:04;;;;;;;2.08;1.55;;;;;;;24.07;48.04;101571.97;5033024;28;20146;-35
2023/07/20 01:57:31;;;;;;;1.70;1.40;;;;;;;24.06;47.46;101575.69;5033674;28;20080;-33
2023/07/20 01:59:58;;;;;;;2.08;1.23;;;;;;;24.06;47.84;101573.81;5032444;28;20429;-33
2023/07/20 02:02:27;;;;;;;2.35;1.40;;;;;;;24.05;47.46;101585.69;5032533;28;20115;-33
2023/07/20 02:04:54;;;;;;;1.95;1.38;;;;;;;24.04;47.56;101578.59;5033026;28;20459;-32
2023/07/20 02:07:20;;;;;;;2.58;1.60;;;;;;;24.03;47.76;101579.59;5029983;28;20136;-33
2023/07/20 02:09:47;;;;;;;2.40;1.50;;;;;;;24.03;47.91;101576.88;5032820;28;20066;-33
2023/07/20 02:12:14;;;;;;;1.88;1.48;;;;;;;24.03;48.13;101578.75;5032367;28;20384;-34
2023/07/20 02:14:40;;;;;;;2.08;1.40;;;;;;;24.02;47.46;101575.19;5034654;28;20080;-33
2023/07/20 02:17:07;;;;;;;1.88;1.38;;;;;;;24.01;47.45;101570.81;5029238;28;20119;-33
2023/07/20 02:19:34;;;;;;;2.83;1.52;;;;;;;24.00;48.10;101570.97;5030389;28;20048;-35
2023/07/20 02:22:01;;;;;;;2.83;1.30;;;;;;;24.00;48.18;101576.38;5037145;28;20103;-34
2023/07/20 02:24:27;;;;;;;1.92;1.33;;;;;;;23.99;48.15;101572.84;5028919;28;20140;-34
2023/07/20 02:26:54;;;;;;;1.80;1.50;;;;;;;23.98;47.51;101584.69;5031995;28;20076;-36
2023/07/20 02:29:20;;;;;;;1.75;1.40;;;;;;;23.98;47.89;101581.16;5036640;28;20050;-33
2023/07/20 02:31:47;;;;;;;2.97;1.48;;;;;;;23.97;47.93;101583.00;5038055;28;20272;-34
2023/07/20 02:34:14;;;;;;;2.28;1.40;;;;;;;23.96;48.15;101584.03;5038289;28;20072;-33
2023/07/20 02:36:42;;;;;;;2.35;1.38;;;;;;;23.95;47.74;101582.31;5039433;28;20132;-34
2023/07/20 02:39:09;;;;;;;1.77;1.23;;;;;;;23.95;48.15;101584.19;5019749;28;20052;-34
2023/07/20 02:41:36;;;;;;;2.00;1.40;;;;;;;23.95;48.24;101578.78;5032378;28;20068;-33
2023/07/20 02:44:03;;;;;;;2.03;1.20;;;;;;;23.94;47.83;101580.66;5033075;28;20057;-34
2023/07/20 02:46:30;;;;;;;1.65;1.13;;;;;;;23.92;48.15;101590.81;5037318;28;20430;-34
2023/07/20 02:48:57;;;;;;;1.88;1.38;;;;;;;23.91;47.75;101591.81;5035944;28;20148;-33
2023/07/20 02:51:23;;;;;;;1.35;1.10;;;;;;;23.91;47.95;101585.56;5040111;28;20075;-33
2023/07/20 02:53:50;;;;;;;2.22;1.45;;;;;;;23.89;47.96;101583.03;5035945;28;20053;-34
2023/07/20 02:56:17;;;;;;;1.52;1.35;;;;;;;23.88;48.18;101589.47;5038211;28;20053;-34
2023/07/20 02:58:45;;;;;;;1.67;1.17;;;;;;;23.88;48.39;101589.47;5036503;28;20057;-33
2023/07/20 03:01:13;;;;;;;1.75;1.23;;;;;;;23.86;48.29;101586.94;5035175;28;20350;-34
2023/07/20 03:03:39;;;;;;;1.35;1.02;;;;;;;23.86;48.01;101596.91;5036535;28;20046;-33
2023/07/20 03:06:09;;;;;;;2.20;1.40;;;;;;;23.85;47.69;101597.94;5035412;28;20092;-35
2023/07/20 03:08:36;;;;;;;1.30;1.10;;;;;;;23.84;48.04;101605.22;5031309;28;20049;-33
2023/07/20 03:11:02;;;;;;;1.65;1.05;;;;;;;23.84;47.71;101604.34;5036040;28;20491;-34
2023/07/20 03:13:29;;;;;;;1.27;1.08;;;;;;;23.83;47.93;101608.94;5035504;28;20053;-33
2023/07/20 03:15:57;;;;;;;1.73;1.30;;;;;;;23.83;48.34;101614.34;5036615;28;20057;-34
2023/07/20 03:18:24;;;;;;;1.90;1.17;;;;;;;23.82;48.09;101609.13;5034116;28;20053;-34
2023/07/20 03:20:50;;;;;;;1.27;0.95;;;;;;;23.82;48.20;101623.50;5039006;28;20079;-33
2023/07/20 03:23:17;;;;;;;1.70;1.30;;;;;;;23.80;48.17;101608.44;5031418;28;20049;-33
2023/07/20 03:25:44;;;;;;;1.23;0.85;;;;;;;23.80;48.23;101614.72;5030724;28;20049;-34
2023/07/20 03:28:10;;;;;;;2.05;1.20;;;;;;;23.80;47.76;101611.13;5030734;28;20053;-34
2023/07/20 03:30:37;;;;;;;0.90;0.80;;;;;;;23.79;48.29;101612.16;5032778;28;20044;-36
2023/07/20 03:33:03;;;;;;;1.98;1.20;;;;;;;23.78;48.34;101618.59;5030271;28;20050;-34
2023/07/20 03:35:31;;;;;;;1.75;1.23;;;;;;;23.77;48.08;101614.22;5030564;28;20045;-33
2023/07/20 03:37:57;;;;;;;1.42;0.93;;;;;;;23.77;48.31;101616.91;5029545;28;20053;-33
2023/07/20 03:40:24;;;;;;;1.63;1.00;;;;;;;23.76;48.17;101612.50;5031950;28;20045;-33
2023/07/20 03:42:51;;;;;;;1.63;1.10;;;;;;;23.75;48.50;101608.13;5031272;28;20045;-35
2023/07/20 03:45:18;;;;;;;1.50;1.00;;;;;;;23.75;48.43;101618.94;5027820;28;20136;-34
2023/07/20 03:47:44;;;;;;;1.20;0.82;;;;;;;23.74;47.74;101619.97;5029979;28;20061;-34
2023/07/20 03:50:11;;;;;;;2.60;1.15;;;;;;;23.74;47.72;101619.97;5031603;28;20053;-34
2023/07/20 03:52:38;;;;;;;1.35;1.00;;;;;;;23.73;48.52;101612.88;5029943;28;20091;-33
2023/07/20 03:55:05;;;;;;;1.58;1.05;;;;;;;23.73;48.11;101618.28;5031736;28;20386;-34
2023/07/20 03:57:33;;;;;;;1.63;1.10;;;;;;;23.73;48.44;101626.41;5027303;28;20501;-34
2023/07/20 03:59:59;;;;;;;1.20;0.90;;;;;;;23.74;48.19;101636.22;5028673;28;20060;-34
2023/07/20 04:02:26;;;;;;;1.65;1.10;;;;;;;23.74;48.06;101623.50;5026187;28;20049;-33
2023/07/20 04:04:53;;;;;;;5.40;1.90;;;;;;;23.74;47.85;101625.38;5025432;28;20060;-33
2023/07/20 04:07:19;;;;;;;5.93;3.55;;;;;;;23.74;48.35;101634.34;5028314;28;20049;-35
2023/07/20 04:09:46;;;;;;;13.93;8.65;;;;;;;23.73;47.81;101638.06;5031432;28;20050;-33
2023/07/20 04:12:12;;;;;;;25.52;15.52;;;;;;;23.73;48.37;101639.94;5032244;28;20549;-34
2023/07/20 04:14:39;;;;;;;25.05;15.60;;;;;;;23.73;47.65;101634.53;5026080;28;20091;-34
2023/07/20 04:17:06;;;;;;;22.75;14.27;;;;;;;23.71;47.82;101636.53;5025274;28;20993;-34
2023/07/20 04:19:32;;;;;;;18.92;11.98;;;;;;;23.70;48.17;101637.56;5028603;28;20056;-34
2023/07/20 04:21:59;;;;;;;23.30;13.02;;;;;;;23.70;47.76;101645.69;5033736;28;20056;-33
2023/07/20 04:24:26;;;;;;;19.15;12.07;;;;;;;23.68;47.81;101645.00;5036787;28;20388;-34
2023/07/20 04:26:52;;;;;;;20.17;11.18;;;;;;;23.67;47.84;101644.16;5038362;28;20089;-34
2023/07/20 04:29:19;;;;;;;18.98;11.38;;;;;;;23.67;47.57;101643.31;5039590;28;20053;-33
2023/07/20 04:31:45;;;;;;;15.68;10.13;;;;;;;23.66;47.66;101644.34;5037739;28;20057;-34
2023/07/20 04:34:12;;;;;;;15.27;9.63;;;;;;;23.66;47.47;101647.06;5036070;28;20129;-34
2023/07/20 04:36:39;;;;;;;14.95;9.02;;;;;;;23.67;47.96;101643.31;5036375;28;20057;-35
2023/07/20 04:39:08;;;;;;;12.73;8.40;;;;;;;23.65;47.78;101648.88;5038540;28;20111;-34
2023/07/20 04:41:51;;;;;;;12.20;7.65;;;;;;;23.66;48.07;101647.88;5033364;28;20092;-34
2023/07/20 04:44:18;;;;;;;12.23;7.60;;;;;;;23.66;47.56;101647.06;5035811;28;20076;-34
2023/07/20 04:46:44;;;;;;;11.10;6.80;;;;;;;23.65;48.04;101654.28;5038355;28;20392;-34
2023/07/20 04:49:13;;;;;;;9.77;6.20;;;;;;;23.66;47.59;101660.59;5034881;28;20460;-33
2023/07/20 04:51:40;;;;;;;10.57;6.38;;;;;;;23.66;47.77;101649.75;5036751;28;20050;-34
2023/07/20 04:54:06;;;;;;;8.18;5.65;;;;;;;23.66;48.03;101653.31;5035310;28;20053;-36
2023/07/20 04:56:33;;;;;;;11.32;5.60;;;;;;;23.67;48.00;101651.44;5035178;28;20049;-34
2023/07/20 04:59:00;;;;;;;8.80;4.93;;;;;;;23.67;48.00;101656.84;5033130;28;20041;-34
2023/07/20 05:01:26;;;;;;;9.20;5.10;;;;;;;23.69;47.92;101652.97;5036432;28;20049;-36
2023/07/20 05:03:53;;;;;;;7.82;4.72;;;;;;;23.70;47.76;101656.50;5034751;28;20116;-34
2023/07/20 05:06:20;;;;;;;7.85;4.88;;;;;;;23.71;47.53;101653.63;5033565;28;20118;-34
2023/07/20 05:08:47;;;;;;;8.45;4.35;;;;;;;23.73;47.15;101656.19;5032972;28;20081;-34
2023/07/20 05:11:14;;;;;;;5.32;3.83;;;;;;;23.75;47.51;101654.13;5032729;28;20433;-34
2023/07/20 05:13:41;;;;;;;6.90;3.80;;;;;;;23.77;47.48;101654.81;5045008;28;20088;-34
2023/07/20 05:16:08;;;;;;;5.63;3.50;;;;;;;23.78;47.43;101659.22;5040896;28;20045;-34
2023/07/20 05:18:34;;;;;;;7.90;3.38;;;;;;;23.80;47.71;101655.31;5040758;28;20353;-33
2023/07/20 05:21:01;;;;;;;5.10;2.90;;;;;;;23.83;47.41;101656.81;5037581;28;20322;-33
2023/07/20 05:23:28;;;;;;;4.80;2.65;;;;;;;23.84;47.69;101659.38;5036584;28;20044;-34
2023/07/20 05:25:58;;;;;;;5.95;2.75;;;;;;;23.86;47.28;101653.78;5037997;28;20103;-35
2023/07/20 05:28:26;;;;;;;4.53;2.47;;;;;;;23.89;47.18;101657.00;5038649;28;20164;-33
2023/07/20 05:30:53;;;;;;;3.88;2.38;;;;;;;23.91;47.65;101645.13;5040163;28;20106;-34
2023/07/20 05:33:20;;;;;;;3.08;2.08;;;;;;;23.92;47.44;101644.09;5043249;28;20049;-33
2023/07/20 05:35:47;;;;;;;4.25;2.35;;;;;;;23.93;47.02;101643.94;5038855;28;20088;-33
2023/07/20 05:38:14;;;;;;;4.85;2.10;;;;;;;23.92;47.52;101641.41;5045189;28;20052;-33
2023/07/20 05:40:42;;;;;;;3.63;2.30;;;;;;;23.92;47.11;101644.09;5041091;28;20049;-34
2023/07/20 05:43:09;;;;;;;4.78;1.98;;;;;;;23.92;47.15;101647.69;5036938;28;20049;-35
2023/07/20 05:45:36;;;;;;;6.43;2.40;;;;;;;23.94;46.97;101642.09;5031609;28;20064;-34
2023/07/20 05:48:03;;;;;;;6.00;2.42;;;;;;;23.94;47.34;101650.22;5033009;28;20053;-33
2023/07/20 05:50:30;;;;;;;4.93;2.38;;;;;;;23.94;47.14;101645.63;5029462;28;20053;-33
2023/07/20 05:52:56;;;;;;;2.85;1.83;;;;;;;23.94;47.02;101648.34;5027140;28;20392;-33
2023/07/20 05:55:23;;;;;;;3.35;1.85;;;;;;;23.92;46.88;101644.97;5031733;28;20081;-34
2023/07/20 05:57:50;;;;;;;2.75;1.42;;;;;;;23.90;46.16;101644.28;5032161;28;20128;-34
2023/07/20 06:00:19;;;;;;;2.90;1.27;;;;;;;23.91;45.86;101658.66;5030723;28;20052;-34
2023/07/20 06:02:47;;;;;;;1.58;0.80;;;;;;;23.88;45.58;101666.13;5030688;28;20132;-34
2023/07/20 06:05:14;;;;;;;1.77;0.90;;;;;;;23.88;45.52;101665.28;5033944;28;20060;-33
2023/07/20 06:07:41;;;;;;;1.88;0.70;;;;;;;23.86;45.65;101664.59;5033328;28;20056;-34
2023/07/20 06:10:07;;;;;;;1.08;0.70;;;;;;;23.84;45.33;101666.63;5031077;28;20053;-34
2023/07/20 06:12:34;;;;;;;2.35;0.63;;;;;;;23.82;45.04;101658.69;5025852;28;20069;-34
2023/07/20 06:15:05;;;;;;;1.70;0.70;;;;;;;23.80;44.12;101662.56;5028272;28;20054;-34
2023/07/20 06:17:31;;;;;;;1.15;0.45;;;;;;;23.80;44.49;101662.56;5033110;28;20469;-33
2023/07/20 06:19:58;;;;;;;2.80;0.55;;;;;;;23.78;44.12;101664.63;5029819;28;20088;-35
2023/07/20 06:22:25;;;;;;;1.38;0.55;;;;;;;23.75;44.40;101667.66;5024424;28;20120;-34
2023/07/20 06:24:51;;;;;;;3.25;0.50;;;;;;;23.73;43.64;101665.16;5033502;28;20088;-34
2023/07/20 06:27:18;;;;;;;0.75;0.40;;;;;;;23.72;43.58;101676.13;5032832;28;20042;-33
2023/07/20 06:29:44;;;;;;;3.78;0.60;;;;;;;23.69;43.51;101666.50;5031393;28;20077;-34
2023/07/20 06:32:11;;;;;;;0.88;0.40;;;;;;;23.69;43.36;101679.19;5032663;28;20045;-34
2023/07/20 06:34:38;;;;;;;1.58;0.50;;;;;;;23.67;43.71;101679.34;5028416;28;20034;-33
2023/07/20 06:37:04;;;;;;;2.63;0.70;;;;;;;23.67;42.75;101673.09;5035099;28;20037;-34
2023/07/20 06:39:31;;;;;;;1.13;0.45;;;;;;;23.66;42.70;101672.25;5032664;28;20049;-34
2023/07/20 06:42:01;;;;;;;1.15;0.50;;;;;;;23.66;43.03;101682.25;5032974;28;20053;-34
2023/07/20 06:44:27;;;;;;;3.28;0.60;;;;;;;23.66;43.23;101682.25;5033063;28;20412;-34
2023/07/20 06:46:54;;;;;;;0.88;0.40;;;;;;;23.63;43.02;101684.22;5037829;28;20099;-34
2023/07/20 06:49:25;;;;;;;0.93;0.50;;;;;;;23.62;42.96;101682.53;5038609;28;20514;-34
2023/07/20 06:51:52;;;;;;;0.90;0.50;;;;;;;23.63;42.35;101688.78;5038546;28;20049;-33
2023/07/20 06:54:19;;;;;;;3.80;0.60;;;;;;;23.62;42.84;101684.41;5034773;28;20128;-33
2023/07/20 06:56:49;;;;;;;1.52;0.40;;;;;;;23.63;42.69;101689.63;5033311;28;20076;-33
2023/07/20 06:59:36;;;;;;;1.88;0.43;;;;;;;23.64;42.67;101690.50;5038418;28;20071;-33
2023/07/20 07:02:08;;;;;;;1.73;0.40;;;;;;;23.64;42.65;101685.94;5033202;28;20053;-34
2023/07/20 07:04:40;;;;;;;1.33;0.50;;;;;;;23.63;42.43;101686.09;5036573;28;20048;-33
2023/07/20 07:07:07;;;;;;;0.80;0.40;;;;;;;23.63;42.71;101689.63;5030880;28;20061;-34
2023/07/20 07:09:34;;;;;;;0.70;0.40;;;;;;;23.64;42.61;101687.81;5038196;28;20177;-34
2023/07/20 07:12:00;;;;;;;0.95;0.30;;;;;;;23.65;43.01;101686.78;5038873;28;20061;-34
2023/07/20 07:14:29;;;;;;;4.65;0.63;;;;;;;23.67;42.98;101686.63;5031558;28;20639;-33
2023/07/20 07:16:55;;;;;;;3.65;1.40;;;;;;;23.68;43.01;101697.31;5030851;28;20107;-34
2023/07/20 07:19:24;;;;;;;2.25;0.70;;;;;;;23.70;42.59;101691.69;5035761;28;20052;-34
2023/07/20 07:21:51;;;;;;;3.45;0.60;;;;;;;23.69;42.66;101690.88;5034221;28;20712;-33
2023/07/20 07:24:17;;;;;;;4.53;0.80;;;;;;;23.71;43.03;101687.97;5036206;28;20041;-35
2023/07/20 07:26:45;;;;;;;1.30;0.45;;;;;;;23.70;42.42;101692.53;5037291;28;20061;-34
2023/07/20 07:29:12;;;;;;;1.17;0.50;;;;;;;23.71;42.27;101693.38;5035901;28;20045;-33
2023/07/20 07:31:39;;;;;;;1.65;0.38;;;;;;;23.72;42.43;101695.94;5031203;28;20045;-33
2023/07/20 07:34:06;;;;;;;1.33;0.60;;;;;;;23.73;42.50;101680.53;5037419;28;20345;-33
2023/07/20 07:36:33;;;;;;;2.20;0.40;;;;;;;23.73;42.33;101691.38;5029966;28;20103;-34
2023/07/20 07:38:59;;;;;;;1.80;0.35;;;;;;;23.73;42.08;101697.63;5032446;28;20045;-33
2023/07/20 07:41:46;;;;;;;1.40;0.57;;;;;;;23.72;42.44;101692.38;5031635;28;20096;-34
2023/07/20 07:44:12;;;;;;;0.77;0.40;;;;;;;23.70;41.95;101695.25;5030561;28;20045;-33
2023/07/20 07:46:39;;;;;;;1.55;0.47;;;;;;;23.71;42.12;101705.06;5029161;28;20041;-34
2023/07/20 07:49:06;;;;;;;2.05;0.40;;;;;;;23.72;42.33;101701.34;5025720;28;20050;-34
2023/07/20 07:51:32;;;;;;;0.98;0.50;;;;;;;23.73;42.61;101700.34;5028391;28;20042;-34
2023/07/20 07:53:59;;;;;;;0.90;0.40;;;;;;;23.74;42.63;101701.19;5032986;28;20099;-34
2023/07/20 07:56:26;;;;;;;1.75;0.40;;;;;;;23.74;42.62;101702.00;5033570;28;20136;-34
2023/07/20 07:58:52;;;;;;;1.70;0.50;;;;;;;23.75;42.38;101700.16;5033583;28;20103;-34
2023/07/20 08:01:19;;;;;;;0.70;0.40;;;;;;;23.75;41.80;101705.56;5031640;28;20104;-33
2023/07/20 08:03:47;;;;;;;1.33;0.40;;;;;;;23.74;42.07;101691.19;5036454;28;20053;-34
2023/07/20 08:06:14;;;;;;;2.45;0.30;;;;;;;23.75;41.51;101697.44;5034784;28;20061;-33
2023/07/20 08:08:42;;;;;;;4.60;0.55;;;;;;;23.75;41.85;101700.16;5034197;28;20100;-33
2023/07/20 08:11:08;;;;;;;2.38;0.52;;;;;;;23.74;41.61;101693.06;5037683;28;20053;-34
2023/07/20 08:13:36;;;;;;;2.03;0.40;;;;;;;23.75;41.74;101695.56;5032881;28;20053;-34
2023/07/20 08:16:03;;;;;;;3.97;0.50;;;;;;;23.74;41.14;101698.47;5038130;28;20045;-34
2023/07/20 08:18:30;;;;;;;2.60;0.40;;;;;;;23.73;41.34;101700.34;5037967;28;20053;-34
2023/07/20 08:20:57;;;;;;;0.75;0.32;;;;;;;23.74;41.69;101701.19;5036887;28;20152;-34
2023/07/20 08:23:23;;;;;;;1.58;0.43;;;;;;;23.74;41.96;101703.88;5035469;28;20132;-35
2023/07/20 08:25:50;;;;;;;0.98;0.60;;;;;;;23.73;41.50;101699.50;5035924;28;20053;-34
2023/07/20 08:28:16;;;;;;;0.82;0.40;;;;;;;23.72;41.49;101703.19;5035748;28;20057;-34
2023/07/20 08:30:48;;;;;;;0.77;0.40;;;;;;;23.71;41.12;101702.34;5033402;28;20225;-34
2023/07/20 08:33:18;;;;;;;1.25;0.50;;;;;;;23.71;41.30;101707.75;5034637;28;20041;-36
2023/07/20 08:35:45;;;;;;;1.27;0.40;;;;;;;23.72;41.09;101706.78;5039237;28;20053;-36
2023/07/20 08:38:12;;;;;;;1.95;0.30;;;;;;;23.72;40.86;101703.19;5036384;28;20053;-34
2023/07/20 08:40:46;;;;;;;2.80;0.57;;;;;;;23.71;40.72;101706.91;5031774;28;20046;-34
2023/07/20 08:43:16;;;;;;;0.95;0.50;;;;;;;23.73;40.79;101710.31;5031630;28;20357;-34
2023/07/20 08:45:45;;;;;;;0.50;0.50;;;;;;;23.73;41.05;101718.44;5037452;28;20049;-34
2023/07/20 08:48:12;;;;;;;1.83;0.52;;;;;;;23.73;40.67;101713.03;5030333;28;20133;-35
2023/07/20 08:50:39;;;;;;;0.95;0.40;;;;;;;23.72;40.10;101709.47;5033950;28;20068;-33
2023/07/20 08:53:07;;;;;;;1.67;0.65;;;;;;;23.72;39.91;101703.19;5034842;28;20433;-33
2023/07/20 08:55:35;;;;;;;0.93;0.60;;;;;;;23.73;39.75;101710.31;5039973;28;20452;-35
2023/07/20 08:58:02;;;;;;;1.63;0.60;;;;;;;23.74;39.51;101701.19;5038913;28;20049;-37
2023/07/20 09:00:29;;;;;;;1.67;0.50;;;;;;;23.75;39.42;101700.16;5035287;28;20049;-36
2023/07/20 09:02:58;;;;;;;3.33;0.70;;;;;;;23.75;39.66;101697.44;5035284;28;20111;-34
2023/07/20 09:05:24;;;;;;;0.85;0.50;;;;;;;23.76;39.39;101699.13;5034888;28;20132;-35
2023/07/20 09:07:55;;;;;;;1.73;0.60;;;;;;;23.78;39.19;101703.38;5031733;28;20057;-34
2023/07/20 09:10:23;;;;;;;0.80;0.40;;;;;;;23.79;39.42;101704.22;5032937;28;20722;-35
2023/07/20 09:12:51;;;;;;;1.02;0.52;;;;;;;23.81;39.39;101697.63;5031556;28;20077;-35
2023/07/20 09:15:19;;;;;;;0.68;0.40;;;;;;;23.84;39.48;101702.69;5032214;28;20037;-35
2023/07/20 09:17:48;;;;;;;1.33;0.45;;;;;;;23.87;39.48;101704.19;5032325;28;20322;-34
2023/07/20 09:20:18;;;;;;;0.70;0.57;;;;;;;23.86;39.42;101705.22;5034883;28;20049;-35
2023/07/20 09:22:49;;;;;;;0.88;0.50;;;;;;;23.87;39.44;101702.34;5032491;28;20085;-34
2023/07/20 09:25:17;;;;;;;1.58;0.60;;;;;;;23.89;39.46;101707.59;5034243;28;20037;-35
2023/07/20 09:27:46;;;;;;;2.33;0.50;;;;;;;23.90;38.47;101701.16;5039991;28;20053;-35
2023/07/20 09:30:15;;;;;;;1.58;0.68;;;;;;;23.91;38.81;101710.97;5034601;28;20322;-35
2023/07/20 09:32:46;;;;;;;1.02;0.70;;;;;;;23.95;38.82;101706.88;5039311;28;20057;-34
2023/07/20 09:35:21;;;;;;;2.72;0.98;;;;;;;24.01;38.98;101705.38;5044306;28;20165;-34
2023/07/20 09:37:52;;;;;;;1.58;0.80;;;;;;;24.06;39.42;101709.25;5039810;28;20061;-35
2023/07/20 09:40:40;;;;;;;5.82;1.45;;;;;;;24.13;39.62;101704.00;5042123;28;20063;-35
2023/07/20 09:43:10;;;;;;;4.20;0.90;;;;;;;24.16;40.28;101702.78;5034303;28;20096;-35
2023/07/20 09:45:43;;;;;;;1.73;0.80;;;;;;;24.19;40.14;101705.16;5029530;28;20049;-35
2023/07/20 09:48:15;;;;;;;1.50;0.90;;;;;;;24.21;40.47;101703.13;5031586;28;20049;-34
2023/07/20 09:50:51;;;;;;;1.98;0.80;;;;;;;24.23;40.18;101696.50;5033364;28;20151;-34
2023/07/20 09:53:19;;;;;;;;;;;;;;;24.24;40.69;101697.34;5032973;28;20053;-34
2023/07/20 09:55:49;;;;;;;1.58;0.82;;;;;;;24.28;40.62;101693.25;5031087;28;20404;-34
2023/07/20 09:58:17;;;;;;;1.65;0.63;;;;;;;24.28;40.36;101687.84;5030270;28;20046;-35
2023/07/20 10:00:46;;;;;;;1.73;0.90;;;;;;;24.27;39.98;101688.88;5029064;28;20437;-35
2023/07/20 10:03:20;;;;;;;1.58;0.80;;;;;;;24.26;40.17;101692.59;5033746;28;20049;-34
2023/07/20 10:06:03;;;;;;;1.38;0.60;;;;;;;24.27;40.55;101683.44;5031604;28;20270;-35
2023/07/20 10:08:31;;;;;;;2.20;0.90;;;;;;;24.30;40.36;101685.81;5033871;28;20048;-34
2023/07/20 10:11:02;;;;;;;0.88;0.50;;;;;;;24.32;39.68;101683.75;5031231;28;20492;-34
2023/07/20 10:13:32;;;;;;;3.33;0.70;;;;;;;24.35;40.09;101678.00;5033668;28;20137;-33
2023/07/20 10:16:06;;;;;;;2.25;0.70;;;;;;;24.38;40.17;101680.41;5033385;28;20502;-36
2023/07/20 10:18:51;;;;;;;2.70;0.60;;;;;;;24.41;38.86;101674.63;5030524;28;20053;-34
2023/07/20 10:21:20;;;;;;;2.78;0.52;;;;;;;24.43;39.10;101680.72;5035601;28;20041;-33
2023/07/20 10:23:49;;;;;;;2.58;0.88;;;;;;;24.46;38.81;101684.94;5035348;28;20413;-34
2023/07/20 10:26:16;;;;;;;1.92;0.70;;;;;;;24.47;39.85;101679.34;5034041;28;20665;-35
2023/07/20 10:28:43;;;;;;;2.30;0.65;;;;;;;24.47;39.78;101682.03;5032828;28;20053;-33
2023/07/20 10:31:12;;;;;;;0.93;0.63;;;;;;;24.48;39.72;101681.00;5030490;28;20086;-35
2023/07/20 10:33:40;;;;;;;1.42;0.50;;;;;;;24.49;39.78;101679.19;5031432;28;20099;-34
2023/07/20 10:36:06;;;;;;;2.83;0.70;;;;;;;24.51;38.56;101682.53;5028860;28;20107;-34
2023/07/20 10:38:45;;;;;;;1.35;0.60;;;;;;;24.48;37.20;101677.47;5031667;28;20053;-34
2023/07/20 10:41:27;;;;;;;1.50;0.50;;;;;;;24.47;36.68;101673.91;5031295;28;20045;-34
2023/07/20 10:44:05;;;;;;;0.60;0.60;;;;;;;24.50;37.36;101668.16;5031116;28;20060;-34
2023/07/20 10:46:45;;;;;;;1.75;0.45;;;;;;;24.51;37.09;101677.97;5029298;28;20069;-34
2023/07/20 10:49:14;;;;;;;1.17;0.80;;;;;;;24.53;38.19;101677.81;5029124;28;20131;-34
2023/07/20 10:51:56;;;;;;;1.55;0.75;;;;;;;24.54;38.63;101666.78;5030229;28;20099;-34
2023/07/20 10:54:22;;;;;;;1.85;0.50;;;;;;;24.57;37.92;101668.28;5038491;28;20041;-34
2023/07/20 10:56:49;;;;;;;2.53;0.70;;;;;;;24.57;38.42;101661.00;5030515;28;20053;-35
2023/07/20 10:59:25;;;;;;;1.33;0.47;;;;;;;24.60;37.24;101660.66;5034539;28;20095;-34
2023/07/20 11:01:59;;;;;;;1.33;0.45;;;;;;;24.65;37.30;101660.13;5033814;28;20056;-35
2023/07/20 11:04:40;;;;;;;1.65;0.55;;;;;;;24.67;38.40;101659.94;5034220;28;20052;-34
2023/07/20 11:07:07;;;;;;;2.40;0.55;;;;;;;24.72;38.51;101657.53;5030910;28;20055;-34
2023/07/20 11:09:35;;;;;;;0.80;0.50;;;;;;;24.75;38.00;101662.59;5041290;28;20053;-34
2023/07/20 11:12:21;;;;;;;1.73;0.70;;;;;;;24.76;37.65;101658.84;5033534;28;20045;-34
2023/07/20 11:14:56;;;;;;;0.77;0.50;;;;;;;24.78;37.64;101649.53;5040926;28;20827;-34
2023/07/20 11:17:35;;;;;;;1.45;0.47;;;;;;;24.81;36.99;101648.34;5034824;28;20091;-34
2023/07/20 11:20:03;;;;;;;1.45;0.50;;;;;;;24.84;37.27;101648.81;5037816;28;20045;-34
2023/07/20 11:22:33;;;;;;;0.55;0.50;;;;;;;24.86;37.17;101649.47;5032156;28;20492;-34
2023/07/20 11:25:00;;;;;;;1.98;0.57;;;;;;;24.88;37.15;101646.56;5033561;28;20041;-34
2023/07/20 11:27:28;;;;;;;1.65;0.57;;;;;;;24.91;37.83;101646.22;5034674;28;20060;-34
2023/07/20 11:29:56;;;;;;;2.45;0.50;;;;;;;24.92;37.50;101641.63;5034566;28;20057;-33
2023/07/20 11:32:24;;;;;;;1.42;0.68;;;;;;;24.92;37.96;101641.63;5035711;28;20053;-34